sensor_id;sensor_type;location;lat;lon;timestamp;pressure;altitude;pressure_sealevel;temperature;humidity
14041;BME280;7095;51.388;6.196;2023-03-04T00:01:58;54204.94;;;-145.32;100.00
14041;BME280;7095;51.388;6.196;2023-03-04T00:04:27;54224.81;;;-145.32;100.00
14041;BME280;7095;51.388;6.196;2023-03-04T00:06:55;54246.69;;;-145.32;100.00
14041;BME280;7095;51.388;6.196;2023-03-04T00:09:25;54222.84;;;-145.32;100.00
14041;BME280;7095;51.388;6.196;2023-03-04T00:11:54;54226.81;;;-145.32;100.00
14041;BME280;7095;51.388;6.196;2023-03-04T00:14:22;54242.72;;;-145.32;100.00
14041;BME280;7095;51.388;6.196;2023-03-04T00:16:51;54232.78;;;-145.32;100.00
14041;BME280;7095;51.388;6.196;2023-03-04T00:19:19;54230.78;;;-145.32;100.00
14041;BME280;7095;51.388;6.196;2023-03-04T00:21:47;54196.97;;;-145.32;100.00
14041;BME280;7095;51.388;6.196;2023-03-04T00:24:16;54226.81;;;-145.32;100.00
14041;BME280;7095;51.388;6.196;2023-03-04T00:26:46;54224.81;;;-145.32;100.00
14041;BME280;7095;51.388;6.196;2023-03-04T00:29:14;54204.94;;;-145.32;100.00
14041;BME280;7095;51.388;6.196;2023-03-04T00:31:43;54230.78;;;-145.32;100.00
14041;BME280;7095;51.388;6.196;2023-03-04T00:34:12;54262.59;;;-145.32;100.00
14041;BME280;7095;51.388;6.196;2023-03-04T00:36:40;54242.72;;;-145.32;100.00
14041;BME280;7095;51.388;6.196;2023-03-04T00:39:10;54206.94;;;-145.32;100.00
14041;BME280;7095;51.388;6.196;2023-03-04T00:41:39;54238.75;;;-145.32;100.00
14041;BME280;7095;51.388;6.196;2023-03-04T00:44:09;54232.78;;;-145.32;100.00
14041;BME280;7095;51.388;6.196;2023-03-04T00:46:37;54280.50;;;-145.32;100.00
14041;BME280;7095;51.388;6.196;2023-03-04T00:49:06;54238.75;;;-145.32;100.00
14041;BME280;7095;51.388;6.196;2023-03-04T00:51:34;54216.88;;;-145.32;100.00
14041;BME280;7095;51.388;6.196;2023-03-04T00:54:03;54236.75;;;-145.32;100.00
14041;BME280;7095;51.388;6.196;2023-03-04T00:56:31;54208.91;;;-145.32;100.00
14041;BME280;7095;51.388;6.196;2023-03-04T00:59:00;54242.72;;;-145.32;100.00
14041;BME280;7095;51.388;6.196;2023-03-04T01:01:29;54242.72;;;-145.32;100.00
14041;BME280;7095;51.388;6.196;2023-03-04T01:03:58;54250.69;;;-145.32;100.00
14041;BME280;7095;51.388;6.196;2023-03-04T01:06:26;54242.72;;;-145.32;100.00
14041;BME280;7095;51.388;6.196;2023-03-04T01:08:54;54240.72;;;-145.32;100.00
14041;BME280;7095;51.388;6.196;2023-03-04T01:11:23;54282.50;;;-145.32;100.00
14041;BME280;7095;51.388;6.196;2023-03-04T01:13:52;54244.72;;;-145.32;100.00
14041;BME280;7095;51.388;6.196;2023-03-04T01:16:20;54238.75;;;-145.32;100.00
14041;BME280;7095;51.388;6.196;2023-03-04T01:18:50;54246.69;;;-145.32;100.00
14041;BME280;7095;51.388;6.196;2023-03-04T01:21:18;54246.69;;;-145.32;100.00
14041;BME280;7095;51.388;6.196;2023-03-04T01:23:47;54234.75;;;-145.32;100.00
14041;BME280;7095;51.388;6.196;2023-03-04T01:26:15;54242.72;;;-145.32;100.00
14041;BME280;7095;51.388;6.196;2023-03-04T01:28:46;54250.69;;;-145.32;100.00
14041;BME280;7095;51.388;6.196;2023-03-04T01:31:14;54258.63;;;-145.32;100.00
14041;BME280;7095;51.388;6.196;2023-03-04T01:33:43;54262.59;;;-145.32;100.00
14041;BME280;7095;51.388;6.196;2023-03-04T01:36:13;54248.69;;;-145.32;100.00
14041;BME280;7095;51.388;6.196;2023-03-04T01:38:41;54290.44;;;-145.32;100.00
14041;BME280;7095;51.388;6.196;2023-03-04T01:41:10;54234.75;;;-145.32;100.00
14041;BME280;7095;51.388;6.196;2023-03-04T01:43:39;54262.59;;;-145.32;100.00
14041;BME280;7095;51.388;6.196;2023-03-04T01:46:08;54296.41;;;-145.32;100.00
14041;BME280;7095;51.388;6.196;2023-03-04T01:48:37;54270.56;;;-145.32;100.00
14041;BME280;7095;51.388;6.196;2023-03-04T01:51:13;54254.66;;;-145.32;100.00
14041;BME280;7095;51.388;6.196;2023-03-04T01:53:43;54288.44;;;-145.32;100.00
14041;BME280;7095;51.388;6.196;2023-03-04T01:56:22;54254.66;;;-145.32;100.00
14041;BME280;7095;51.388;6.196;2023-03-04T01:59:11;54195.00;;;-145.32;100.00
14041;BME280;7095;51.388;6.196;2023-03-04T02:01:42;54222.84;;;-145.32;100.00
14041;BME280;7095;51.388;6.196;2023-03-04T02:04:11;54258.63;;;-145.32;100.00
14041;BME280;7095;51.388;6.196;2023-03-04T02:06:42;54264.59;;;-145.32;100.00
14041;BME280;7095;51.388;6.196;2023-03-04T02:09:11;54232.78;;;-145.32;100.00
14041;BME280;7095;51.388;6.196;2023-03-04T02:11:40;54208.91;;;-145.32;100.00
14041;BME280;7095;51.388;6.196;2023-03-04T02:14:10;54254.66;;;-145.32;100.00
14041;BME280;7095;51.388;6.196;2023-03-04T02:16:39;54258.63;;;-145.32;100.00
14041;BME280;7095;51.388;6.196;2023-03-04T02:19:14;54244.72;;;-145.32;100.00
14041;BME280;7095;51.388;6.196;2023-03-04T02:21:46;54238.75;;;-145.32;100.00
14041;BME280;7095;51.388;6.196;2023-03-04T02:24:22;54226.81;;;-145.32;100.00
14041;BME280;7095;51.388;6.196;2023-03-04T02:26:54;54232.78;;;-145.32;100.00
14041;BME280;7095;51.388;6.196;2023-03-04T02:29:22;54250.69;;;-145.32;100.00
14041;BME280;7095;51.388;6.196;2023-03-04T02:31:52;54260.63;;;-145.32;100.00
14041;BME280;7095;51.388;6.196;2023-03-04T02:34:23;54258.63;;;-145.32;100.00
14041;BME280;7095;51.388;6.196;2023-03-04T02:36:53;54238.75;;;-145.32;100.00
14041;BME280;7095;51.388;6.196;2023-03-04T02:39:27;54258.63;;;-145.32;100.00
14041;BME280;7095;51.388;6.196;2023-03-04T02:42:00;54244.72;;;-145.32;100.00
14041;BME280;7095;51.388;6.196;2023-03-04T02:44:32;54222.84;;;-145.32;100.00
14041;BME280;7095;51.388;6.196;2023-03-04T02:47:02;54274.53;;;-145.32;100.00
14041;BME280;7095;51.388;6.196;2023-03-04T02:49:32;54236.75;;;-145.32;100.00
14041;BME280;7095;51.388;6.196;2023-03-04T02:52:03;54218.84;;;-145.32;100.00
14041;BME280;7095;51.388;6.196;2023-03-04T02:54:33;54226.81;;;-145.32;100.00
14041;BME280;7095;51.388;6.196;2023-03-04T02:57:05;54222.84;;;-145.32;100.00
14041;BME280;7095;51.388;6.196;2023-03-04T02:59:36;54238.75;;;-145.32;100.00
14041;BME280;7095;51.388;6.196;2023-03-04T03:02:07;54212.88;;;-145.32;100.00
14041;BME280;7095;51.388;6.196;2023-03-04T03:04:37;54191.03;;;-145.32;100.00
14041;BME280;7095;51.388;6.196;2023-03-04T03:07:09;54224.81;;;-145.32;100.00
14041;BME280;7095;51.388;6.196;2023-03-04T03:09:39;54202.94;;;-145.32;100.00
14041;BME280;7095;51.388;6.196;2023-03-04T03:12:09;54226.81;;;-145.32;100.00
14041;BME280;7095;51.388;6.196;2023-03-04T03:14:37;54234.75;;;-145.32;100.00
14041;BME280;7095;51.388;6.196;2023-03-04T03:17:08;54246.69;;;-145.32;100.00
14041;BME280;7095;51.388;6.196;2023-03-04T03:19:37;54250.69;;;-145.32;100.00
14041;BME280;7095;51.388;6.196;2023-03-04T03:22:07;54246.69;;;-145.32;100.00
14041;BME280;7095;51.388;6.196;2023-03-04T03:24:35;54198.97;;;-145.32;100.00
14041;BME280;7095;51.388;6.196;2023-03-04T03:27:04;54242.72;;;-145.32;100.00
14041;BME280;7095;51.388;6.196;2023-03-04T03:29:34;54234.75;;;-145.32;100.00
14041;BME280;7095;51.388;6.196;2023-03-04T03:32:06;54276.53;;;-145.32;100.00
14041;BME280;7095;51.388;6.196;2023-03-04T03:34:35;54234.75;;;-145.32;100.00
14041;BME280;7095;51.388;6.196;2023-03-04T03:37:03;54232.78;;;-145.32;100.00
14041;BME280;7095;51.388;6.196;2023-03-04T03:39:32;54240.72;;;-145.32;100.00
14041;BME280;7095;51.388;6.196;2023-03-04T03:42:00;54226.81;;;-145.32;100.00
14041;BME280;7095;51.388;6.196;2023-03-04T03:44:29;54256.63;;;-145.32;100.00
14041;BME280;7095;51.388;6.196;2023-03-04T03:47:08;54262.59;;;-145.32;100.00
14041;BME280;7095;51.388;6.196;2023-03-04T03:49:36;54234.75;;;-145.32;100.00
14041;BME280;7095;51.388;6.196;2023-03-04T03:52:04;54202.94;;;-145.32;100.00
14041;BME280;7095;51.388;6.196;2023-03-04T03:54:34;54254.66;;;-145.32;100.00
14041;BME280;7095;51.388;6.196;2023-03-04T03:57:02;54264.59;;;-145.32;100.00
14041;BME280;7095;51.388;6.196;2023-03-04T03:59:31;54218.84;;;-145.32;100.00
14041;BME280;7095;51.388;6.196;2023-03-04T04:02:00;54234.75;;;-145.32;100.00
14041;BME280;7095;51.388;6.196;2023-03-04T04:04:30;54206.94;;;-145.32;100.00
14041;BME280;7095;51.388;6.196;2023-03-04T04:06:58;54242.72;;;-145.32;100.00
14041;BME280;7095;51.388;6.196;2023-03-04T04:09:26;54187.03;;;-145.32;100.00
14041;BME280;7095;51.388;6.196;2023-03-04T04:11:55;54204.94;;;-145.32;100.00
14041;BME280;7095;51.388;6.196;2023-03-04T04:14:23;54250.69;;;-145.32;100.00
14041;BME280;7095;51.388;6.196;2023-03-04T04:16:52;54244.72;;;-145.32;100.00
14041;BME280;7095;51.388;6.196;2023-03-04T04:19:20;54244.72;;;-145.32;100.00
14041;BME280;7095;51.388;6.196;2023-03-04T04:21:50;54206.94;;;-145.32;100.00
14041;BME280;7095;51.388;6.196;2023-03-04T04:24:18;54226.81;;;-145.32;100.00
14041;BME280;7095;51.388;6.196;2023-03-04T04:26:47;54206.94;;;-145.32;100.00
14041;BME280;7095;51.388;6.196;2023-03-04T04:29:15;54262.59;;;-145.32;100.00
14041;BME280;7095;51.388;6.196;2023-03-04T04:31:44;54250.69;;;-145.32;100.00
14041;BME280;7095;51.388;6.196;2023-03-04T04:34:12;54258.63;;;-145.32;100.00
14041;BME280;7095;51.388;6.196;2023-03-04T04:36:41;54282.50;;;-145.32;100.00
14041;BME280;7095;51.388;6.196;2023-03-04T04:39:10;54240.72;;;-145.32;100.00
14041;BME280;7095;51.388;6.196;2023-03-04T04:41:41;54266.59;;;-145.32;100.00
14041;BME280;7095;51.388;6.196;2023-03-04T04:44:10;54266.59;;;-145.32;100.00
14041;BME280;7095;51.388;6.196;2023-03-04T04:46:39;54292.44;;;-145.32;100.00
14041;BME280;7095;51.388;6.196;2023-03-04T04:49:08;54290.44;;;-145.32;100.00
14041;BME280;7095;51.388;6.196;2023-03-04T04:51:37;54260.63;;;-145.32;100.00
14041;BME280;7095;51.388;6.196;2023-03-04T04:54:06;54292.44;;;-145.32;100.00
14041;BME280;7095;51.388;6.196;2023-03-04T04:56:36;54268.56;;;-145.32;100.00
14041;BME280;7095;51.388;6.196;2023-03-04T04:59:06;54302.38;;;-145.32;100.00
14041;BME280;7095;51.388;6.196;2023-03-04T05:01:34;54282.50;;;-145.32;100.00
14041;BME280;7095;51.388;6.196;2023-03-04T05:04:03;54310.34;;;-145.32;100.00
14041;BME280;7095;51.388;6.196;2023-03-04T05:06:32;54274.53;;;-145.32;100.00
14041;BME280;7095;51.388;6.196;2023-03-04T05:09:00;54278.50;;;-145.32;100.00
14041;BME280;7095;51.388;6.196;2023-03-04T05:11:29;54274.53;;;-145.32;100.00
14041;BME280;7095;51.388;6.196;2023-03-04T05:14:02;54290.44;;;-145.32;100.00
14041;BME280;7095;51.388;6.196;2023-03-04T05:16:30;54288.44;;;-145.32;100.00
14041;BME280;7095;51.388;6.196;2023-03-04T05:18:59;54290.44;;;-145.32;100.00
14041;BME280;7095;51.388;6.196;2023-03-04T05:21:27;54282.50;;;-145.32;100.00
14041;BME280;7095;51.388;6.196;2023-03-04T05:23:55;54288.44;;;-145.32;100.00
14041;BME280;7095;51.388;6.196;2023-03-04T05:26:24;54290.44;;;-145.32;100.00
14041;BME280;7095;51.388;6.196;2023-03-04T05:28:52;54256.63;;;-145.32;100.00
14041;BME280;7095;51.388;6.196;2023-03-04T05:31:22;54238.75;;;-145.32;100.00
14041;BME280;7095;51.388;6.196;2023-03-04T05:33:50;54240.72;;;-145.32;100.00
14041;BME280;7095;51.388;6.196;2023-03-04T05:36:19;54254.66;;;-145.32;100.00
14041;BME280;7095;51.388;6.196;2023-03-04T05:38:47;54260.63;;;-145.32;100.00
14041;BME280;7095;51.388;6.196;2023-03-04T05:41:16;54282.50;;;-145.32;100.00
14041;BME280;7095;51.388;6.196;2023-03-04T05:43:46;54284.47;;;-145.32;100.00
14041;BME280;7095;51.388;6.196;2023-03-04T05:46:15;54266.59;;;-145.32;100.00
14041;BME280;7095;51.388;6.196;2023-03-04T05:48:52;54294.41;;;-145.32;100.00
14041;BME280;7095;51.388;6.196;2023-03-04T05:51:20;54254.66;;;-145.32;100.00
14041;BME280;7095;51.388;6.196;2023-03-04T05:53:49;54258.63;;;-145.32;100.00
14041;BME280;7095;51.388;6.196;2023-03-04T05:56:18;54270.56;;;-145.32;100.00
14041;BME280;7095;51.388;6.196;2023-03-04T05:58:47;54234.75;;;-145.32;100.00
14041;BME280;7095;51.388;6.196;2023-03-04T06:01:16;54280.50;;;-145.32;100.00
14041;BME280;7095;51.388;6.196;2023-03-04T06:03:44;54282.50;;;-145.32;100.00
14041;BME280;7095;51.388;6.196;2023-03-04T06:06:16;54290.44;;;-145.32;100.00
14041;BME280;7095;51.388;6.196;2023-03-04T06:08:44;54264.59;;;-145.32;100.00
14041;BME280;7095;51.388;6.196;2023-03-04T06:11:13;54268.56;;;-145.32;100.00
14041;BME280;7095;51.388;6.196;2023-03-04T06:13:41;54294.41;;;-145.32;100.00
14041;BME280;7095;51.388;6.196;2023-03-04T06:16:10;54288.44;;;-145.32;100.00
14041;BME280;7095;51.388;6.196;2023-03-04T06:18:38;54254.66;;;-145.32;100.00
14041;BME280;7095;51.388;6.196;2023-03-04T06:21:07;54270.56;;;-145.32;100.00
14041;BME280;7095;51.388;6.196;2023-03-04T06:23:36;54270.56;;;-145.32;100.00
14041;BME280;7095;51.388;6.196;2023-03-04T06:26:05;54290.44;;;-145.32;100.00
14041;BME280;7095;51.388;6.196;2023-03-04T06:28:36;54298.41;;;-145.32;100.00
14041;BME280;7095;51.388;6.196;2023-03-04T06:31:04;54302.38;;;-145.32;100.00
14041;BME280;7095;51.388;6.196;2023-03-04T06:33:33;54274.53;;;-145.32;100.00
14041;BME280;7095;51.388;6.196;2023-03-04T06:36:01;54306.34;;;-145.32;100.00
14041;BME280;7095;51.388;6.196;2023-03-04T06:38:30;54300.38;;;-145.32;100.00
14041;BME280;7095;51.388;6.196;2023-03-04T06:41:20;54306.34;;;-145.32;100.00
14041;BME280;7095;51.388;6.196;2023-03-04T06:43:48;54320.28;;;-145.32;100.00
14041;BME280;7095;51.388;6.196;2023-03-04T06:46:17;54304.38;;;-145.32;100.00
14041;BME280;7095;51.388;6.196;2023-03-04T06:48:45;54294.41;;;-145.32;100.00
14041;BME280;7095;51.388;6.196;2023-03-04T06:51:14;54320.28;;;-145.32;100.00
14041;BME280;7095;51.388;6.196;2023-03-04T06:53:45;54310.34;;;-145.32;100.00
14041;BME280;7095;51.388;6.196;2023-03-04T06:56:13;54294.41;;;-145.32;100.00
14041;BME280;7095;51.388;6.196;2023-03-04T06:58:45;54308.34;;;-145.32;100.00
14041;BME280;7095;51.388;6.196;2023-03-04T07:01:15;54298.41;;;-145.32;100.00
14041;BME280;7095;51.388;6.196;2023-03-04T07:03:44;54330.22;;;-145.32;100.00
14041;BME280;7095;51.388;6.196;2023-03-04T07:06:14;54350.09;;;-145.32;100.00
14041;BME280;7095;51.388;6.196;2023-03-04T07:08:43;54360.03;;;-145.32;100.00
14041;BME280;7095;51.388;6.196;2023-03-04T07:11:13;54377.94;;;-145.32;100.00
14041;BME280;7095;51.388;6.196;2023-03-04T07:13:41;54340.16;;;-145.32;100.00
14041;BME280;7095;51.388;6.196;2023-03-04T07:16:14;54362.03;;;-145.32;100.00
14041;BME280;7095;51.388;6.196;2023-03-04T07:18:44;54360.03;;;-145.32;100.00
14041;BME280;7095;51.388;6.196;2023-03-04T07:21:16;54379.94;;;-145.32;100.00
14041;BME280;7095;51.388;6.196;2023-03-04T07:23:46;54421.69;;;-145.32;100.00
14041;BME280;7095;51.388;6.196;2023-03-04T07:26:15;54405.78;;;-145.32;100.00
14041;BME280;7095;51.388;6.196;2023-03-04T07:28:43;54421.69;;;-145.32;100.00
14041;BME280;7095;51.388;6.196;2023-03-04T07:31:22;54429.66;;;-145.32;100.00
14041;BME280;7095;51.388;6.196;2023-03-04T07:33:50;54433.63;;;-145.32;100.00
14041;BME280;7095;51.388;6.196;2023-03-04T07:36:19;54449.53;;;-145.32;100.00
14041;BME280;7095;51.388;6.196;2023-03-04T07:38:49;54511.19;;;-145.32;100.00
14041;BME280;7095;51.388;6.196;2023-03-04T07:41:17;54505.22;;;-145.32;100.00
14041;BME280;7095;51.388;6.196;2023-03-04T07:43:46;54546.97;;;-145.32;100.00
14041;BME280;7095;51.388;6.196;2023-03-04T07:46:17;54556.91;;;-145.32;100.00
14041;BME280;7095;51.388;6.196;2023-03-04T07:48:45;54576.81;;;-145.32;100.00
14041;BME280;7095;51.388;6.196;2023-03-04T07:51:15;54566.84;;;-145.32;100.00
14041;BME280;7095;51.388;6.196;2023-03-04T07:53:46;54612.59;;;-145.32;100.00
14041;BME280;7095;51.388;6.196;2023-03-04T07:56:17;54680.22;;;-145.32;100.00
14041;BME280;7095;51.388;6.196;2023-03-04T07:58:45;54700.09;;;-145.32;100.00
14041;BME280;7095;51.388;6.196;2023-03-04T08:01:17;54720.00;;;-145.32;100.00
14041;BME280;7095;51.388;6.196;2023-03-04T08:03:46;54759.78;;;-145.32;100.00
14041;BME280;7095;51.388;6.196;2023-03-04T08:06:16;54797.56;;;-145.32;100.00
14041;BME280;7095;51.388;6.196;2023-03-04T08:08:45;54821.41;;;-145.32;100.00
14041;BME280;7095;51.388;6.196;2023-03-04T08:11:17;54785.63;;;-145.32;100.00
14041;BME280;7095;51.388;6.196;2023-03-04T08:13:46;54900.97;;;-145.32;100.00
14041;BME280;7095;51.388;6.196;2023-03-04T08:16:17;54922.84;;;-145.32;100.00
14041;BME280;7095;51.388;6.196;2023-03-04T08:18:48;54970.59;;;-145.32;100.00
14041;BME280;7095;51.388;6.196;2023-03-04T08:21:18;55179.44;;;-145.32;100.00
14041;BME280;7095;51.388;6.196;2023-03-04T08:23:47;55185.41;;;-145.32;100.00
14041;BME280;7095;51.388;6.196;2023-03-04T08:26:19;55243.09;;;-145.32;100.00
14041;BME280;7095;51.388;6.196;2023-03-04T08:28:48;55268.94;;;-145.32;100.00
14041;BME280;7095;51.388;6.196;2023-03-04T08:31:18;55408.19;;;-145.32;100.00
14041;BME280;7095;51.388;6.196;2023-03-04T08:33:47;55471.84;;;-145.32;100.00
14041;BME280;7095;51.388;6.196;2023-03-04T08:36:15;55416.13;;;-145.32;100.00
14041;BME280;7095;51.388;6.196;2023-03-04T08:38:44;55471.84;;;-145.32;100.00
14041;BME280;7095;51.388;6.196;2023-03-04T08:41:12;55623.03;;;-145.32;100.00
14041;BME280;7095;51.388;6.196;2023-03-04T08:43:42;55666.78;;;-145.32;100.00
14041;BME280;7095;51.388;6.196;2023-03-04T08:46:10;55360.44;;;-145.32;100.00
14041;BME280;7095;51.388;6.196;2023-03-04T08:48:40;55440.00;;;-145.32;100.00
14041;BME280;7095;51.388;6.196;2023-03-04T08:51:11;55527.53;;;-145.32;100.00
14041;BME280;7095;51.388;6.196;2023-03-04T08:53:40;55451.94;;;-145.32;100.00
14041;BME280;7095;51.388;6.196;2023-03-04T08:56:12;55280.88;;;-145.32;100.00
14041;BME280;7095;51.388;6.196;2023-03-04T08:58:41;55241.09;;;-145.32;100.00
14041;BME280;7095;51.388;6.196;2023-03-04T09:01:10;55231.16;;;-145.32;100.00
14041;BME280;7095;51.388;6.196;2023-03-04T09:03:41;55145.63;;;-145.32;100.00
14041;BME280;7095;51.388;6.196;2023-03-04T09:06:13;54984.50;;;-145.32;100.00
14041;BME280;7095;51.388;6.196;2023-03-04T09:08:41;55056.13;;;-145.32;100.00
14041;BME280;7095;51.388;6.196;2023-03-04T09:11:10;55085.94;;;-145.32;100.00
14041;BME280;7095;51.388;6.196;2023-03-04T09:13:39;54958.66;;;-145.32;100.00
14041;BME280;7095;51.388;6.196;2023-03-04T09:16:08;54902.97;;;-145.32;100.00
14041;BME280;7095;51.388;6.196;2023-03-04T09:18:38;54823.41;;;-145.32;100.00
14041;BME280;7095;51.388;6.196;2023-03-04T09:21:08;54799.53;;;-145.32;100.00
14041;BME280;7095;51.388;6.196;2023-03-04T09:23:37;54791.59;;;-145.32;100.00
14041;BME280;7095;51.388;6.196;2023-03-04T09:26:14;54789.59;;;-145.32;100.00
14041;BME280;7095;51.388;6.196;2023-03-04T09:28:43;54759.78;;;-145.32;100.00
14041;BME280;7095;51.388;6.196;2023-03-04T09:31:12;54767.72;;;-145.32;100.00
14041;BME280;7095;51.388;6.196;2023-03-04T09:33:41;54803.53;;;-145.32;100.00
14041;BME280;7095;51.388;6.196;2023-03-04T09:36:12;54839.31;;;-145.32;100.00
14041;BME280;7095;51.388;6.196;2023-03-04T09:38:41;54819.44;;;-145.32;100.00
14041;BME280;7095;51.388;6.196;2023-03-04T09:41:14;54712.03;;;-145.32;100.00
14041;BME280;7095;51.388;6.196;2023-03-04T09:43:44;54660.31;;;-145.32;100.00
14041;BME280;7095;51.388;6.196;2023-03-04T09:46:16;54735.91;;;-145.32;100.00
14041;BME280;7095;51.388;6.196;2023-03-04T09:48:47;54700.09;;;-145.32;100.00
14041;BME280;7095;51.388;6.196;2023-03-04T09:51:26;54706.06;;;-145.32;100.00
14041;BME280;7095;51.388;6.196;2023-03-04T09:54:06;54700.09;;;-145.32;100.00
14041;BME280;7095;51.388;6.196;2023-03-04T09:56:37;54620.56;;;-145.32;100.00
14041;BME280;7095;51.388;6.196;2023-03-04T09:59:15;54419.69;;;-145.32;100.00
14041;BME280;7095;51.388;6.196;2023-03-04T10:01:47;54368.00;;;-145.32;100.00
14041;BME280;7095;51.388;6.196;2023-03-04T10:04:19;54441.56;;;-145.32;100.00
14041;BME280;7095;51.388;6.196;2023-03-04T10:06:55;54391.84;;;-145.32;100.00
14041;BME280;7095;51.388;6.196;2023-03-04T10:09:26;54352.09;;;-145.32;100.00
14041;BME280;7095;51.388;6.196;2023-03-04T10:12:00;54379.94;;;-145.32;100.00
14041;BME280;7095;51.388;6.196;2023-03-04T10:14:33;54389.88;;;-145.32;100.00
14041;BME280;7095;51.388;6.196;2023-03-04T10:17:08;54373.97;;;-145.32;100.00
14041;BME280;7095;51.388;6.196;2023-03-04T10:19:50;54381.91;;;-145.32;100.00
14041;BME280;7095;51.388;6.196;2023-03-04T10:22:25;54389.88;;;-145.32;100.00
14041;BME280;7095;51.388;6.196;2023-03-04T10:24:58;54395.84;;;-145.32;100.00
14041;BME280;7095;51.388;6.196;2023-03-04T10:27:29;54369.97;;;-145.32;100.00
14041;BME280;7095;51.388;6.196;2023-03-04T10:29:59;54385.91;;;-145.32;100.00
14041;BME280;7095;51.388;6.196;2023-03-04T10:32:27;54362.03;;;-145.32;100.00
14041;BME280;7095;51.388;6.196;2023-03-04T10:34:56;54373.97;;;-145.32;100.00
14041;BME280;7095;51.388;6.196;2023-03-04T10:37:42;54383.91;;;-145.32;100.00
14041;BME280;7095;51.388;6.196;2023-03-04T10:40:18;54389.88;;;-145.32;100.00
14041;BME280;7095;51.388;6.196;2023-03-04T10:42:48;54362.03;;;-145.32;100.00
14041;BME280;7095;51.388;6.196;2023-03-04T10:45:21;54366.00;;;-145.32;100.00
14041;BME280;7095;51.388;6.196;2023-03-04T10:47:51;54427.66;;;-145.32;100.00
14041;BME280;7095;51.388;6.196;2023-03-04T10:50:22;54461.47;;;-145.32;100.00
14041;BME280;7095;51.388;6.196;2023-03-04T10:52:53;54433.63;;;-145.32;100.00
14041;BME280;7095;51.388;6.196;2023-03-04T10:55:23;54463.44;;;-145.32;100.00
14041;BME280;7095;51.388;6.196;2023-03-04T10:57:54;54515.16;;;-145.32;100.00
14041;BME280;7095;51.388;6.196;2023-03-04T11:00:29;54409.75;;;-145.32;100.00
14041;BME280;7095;51.388;6.196;2023-03-04T11:03:21;54354.06;;;-145.32;100.00
14041;BME280;7095;51.388;6.196;2023-03-04T11:05:50;54387.88;;;-145.32;100.00
14041;BME280;7095;51.388;6.196;2023-03-04T11:08:22;54421.69;;;-145.32;100.00
14041;BME280;7095;51.388;6.196;2023-03-04T11:10:50;54457.47;;;-145.32;100.00
14041;BME280;7095;51.388;6.196;2023-03-04T11:13:24;54433.63;;;-145.32;100.00
14041;BME280;7095;51.388;6.196;2023-03-04T11:15:55;54461.47;;;-145.32;100.00
14041;BME280;7095;51.388;6.196;2023-03-04T11:18:29;54445.56;;;-145.32;100.00
14041;BME280;7095;51.388;6.196;2023-03-04T11:21:00;54443.56;;;-145.32;100.00
14041;BME280;7095;51.388;6.196;2023-03-04T11:23:35;54433.63;;;-145.32;100.00
14041;BME280;7095;51.388;6.196;2023-03-04T11:26:10;54457.47;;;-145.32;100.00
14041;BME280;7095;51.388;6.196;2023-03-04T11:28:45;54409.75;;;-145.32;100.00
14041;BME280;7095;51.388;6.196;2023-03-04T11:31:16;54393.84;;;-145.32;100.00
14041;BME280;7095;51.388;6.196;2023-03-04T11:33:52;54369.97;;;-145.32;100.00
14041;BME280;7095;51.388;6.196;2023-03-04T11:36:27;54302.38;;;-145.32;100.00
14041;BME280;7095;51.388;6.196;2023-03-04T11:39:02;54266.59;;;-145.32;100.00
14041;BME280;7095;51.388;6.196;2023-03-04T11:41:34;54262.59;;;-145.32;100.00
14041;BME280;7095;51.388;6.196;2023-03-04T11:44:05;54262.59;;;-145.32;100.00
14041;BME280;7095;51.388;6.196;2023-03-04T11:46:48;54290.44;;;-145.32;100.00
14041;BME280;7095;51.388;6.196;2023-03-04T11:49:37;54266.59;;;-145.32;100.00
14041;BME280;7095;51.388;6.196;2023-03-04T11:52:20;54256.63;;;-145.32;100.00
14041;BME280;7095;51.388;6.196;2023-03-04T11:55:07;54282.50;;;-145.32;100.00
14041;BME280;7095;51.388;6.196;2023-03-04T11:57:48;54157.22;;;-145.32;100.00
14041;BME280;7095;51.388;6.196;2023-03-04T12:00:31;54149.25;;;-145.32;100.00
14041;BME280;7095;51.388;6.196;2023-03-04T12:03:19;54226.81;;;-145.32;100.00
14041;BME280;7095;51.388;6.196;2023-03-04T12:05:56;54196.97;;;-145.32;100.00
14041;BME280;7095;51.388;6.196;2023-03-04T12:08:40;54202.94;;;-145.32;100.00
14041;BME280;7095;51.388;6.196;2023-03-04T12:11:17;54208.91;;;-145.32;100.00
14041;BME280;7095;51.388;6.196;2023-03-04T12:14:06;54135.34;;;-145.32;100.00
14041;BME280;7095;51.388;6.196;2023-03-04T12:17:01;54135.34;;;-145.32;100.00
14041;BME280;7095;51.388;6.196;2023-03-04T12:19:43;54069.72;;;-145.32;100.00
14041;BME280;7095;51.388;6.196;2023-03-04T12:22:27;54125.41;;;-145.32;100.00
14041;BME280;7095;51.388;6.196;2023-03-04T12:25:12;54139.31;;;-145.32;100.00
14041;BME280;7095;51.388;6.196;2023-03-04T12:27:57;54115.47;;;-145.32;100.00
14041;BME280;7095;51.388;6.196;2023-03-04T12:30:36;54095.56;;;-145.32;100.00
14041;BME280;7095;51.388;6.196;2023-03-04T12:33:13;54109.50;;;-145.32;100.00
14041;BME280;7095;51.388;6.196;2023-03-04T12:35:56;54133.34;;;-145.32;100.00
14041;BME280;7095;51.388;6.196;2023-03-04T12:38:47;54077.69;;;-145.32;100.00
14041;BME280;7095;51.388;6.196;2023-03-04T12:41:29;54105.50;;;-145.32;100.00
14041;BME280;7095;51.388;6.196;2023-03-04T12:44:11;54121.41;;;-145.32;100.00
14041;BME280;7095;51.388;6.196;2023-03-04T12:47:09;54167.16;;;-145.32;100.00
14041;BME280;7095;51.388;6.196;2023-03-04T12:49:57;54163.19;;;-145.32;100.00
14041;BME280;7095;51.388;6.196;2023-03-04T12:52:38;54173.13;;;-145.32;100.00
14041;BME280;7095;51.388;6.196;2023-03-04T12:55:11;54151.25;;;-145.32;100.00
14041;BME280;7095;51.388;6.196;2023-03-04T12:57:42;54177.09;;;-145.32;100.00
14041;BME280;7095;51.388;6.196;2023-03-04T13:00:22;54161.19;;;-145.32;100.00
14041;BME280;7095;51.388;6.196;2023-03-04T13:03:07;54137.34;;;-145.32;100.00